createdAt,value
2018-02-12T00:00:57.484Z," 2.61"
2018-02-12T00:05:56.454Z," 2.38"
2018-02-12T00:10:56.454Z," 2.49"
2018-02-12T00:15:56.079Z," 2.43"
2018-02-12T00:20:54.830Z," 2.36"
2018-02-12T00:25:55.198Z," 2.47"
2018-02-12T00:30:53.944Z," 2.47"
2018-02-12T00:35:56.279Z," 2.47"
2018-02-12T00:40:55.247Z," 2.43"
2018-02-12T00:45:55.075Z," 2.43"
2018-02-12T00:50:53.724Z," 2.39"
2018-02-12T00:55:53.523Z," 2.36"
2018-02-12T01:00:54.086Z," 2.50"
2018-02-12T01:05:49.350Z," 2.46"
2018-02-12T01:10:44.572Z," 2.60"
2018-02-12T01:15:46.249Z," 2.54"
2018-02-12T01:20:45.163Z," 2.57"
2018-02-12T01:25:44.377Z," 2.50"
2018-02-12T01:30:40.342Z," 2.51"
2018-02-12T01:35:40.868Z," 2.67"
2018-02-12T01:40:35.612Z," 2.68"
2018-02-12T01:45:35.495Z," 2.65"
2018-02-12T01:50:34.482Z," 2.83"
2018-02-12T01:55:34.562Z," 2.83"
2018-02-12T02:00:33.321Z," 2.77"
2018-02-12T02:05:32.040Z," 2.68"
2018-02-12T02:10:31.904Z," 2.68"
2018-02-12T02:15:28.010Z," 2.62"
2018-02-12T02:20:23.450Z," 2.67"
2018-02-12T02:25:20.138Z," 2.69"
2018-02-12T02:30:19.646Z," 2.62"
2018-02-12T02:35:14.623Z," 2.60"
2018-02-12T02:40:11.250Z," 2.54"
2018-02-12T02:45:06.426Z," 2.60"
2018-02-12T02:55:10.384Z," 2.57"
2018-02-12T03:00:12.228Z," 2.56"
2018-02-12T03:05:11.801Z," 2.68"
2018-02-12T03:10:11.807Z," 2.68"
2018-02-12T03:15:10.260Z," 2.61"
2018-02-12T03:20:05.618Z," 2.65"
2018-02-12T03:25:07.443Z," 2.50"
2018-02-12T03:30:08.176Z," 2.67"
2018-02-12T03:35:06.620Z," 2.56"
2018-02-12T03:40:05.843Z," 2.62"
2018-02-12T03:45:08.661Z," 2.65"
2018-02-12T03:50:09.169Z," 2.61"
2018-02-12T03:55:09.789Z," 2.60"
2018-02-12T04:00:05.626Z," 2.54"
2018-02-12T04:05:08.284Z," 2.49"
2018-02-12T04:10:05.637Z," 2.50"
2018-02-12T04:15:04.666Z," 2.38"
2018-02-12T04:20:03.638Z," 2.22"
2018-02-12T04:24:59.823Z," 2.07"
2018-02-12T04:29:59.101Z," 1.99"
2018-02-12T04:34:58.736Z," 1.91"
2018-02-12T04:39:57.346Z," 1.85"
2018-02-12T04:44:57.076Z," 1.81"
2018-02-12T04:49:55.756Z," 1.73"
2018-02-12T04:59:54.887Z," 1.88"
2018-02-12T05:04:54.621Z," 1.91"
2018-02-12T05:09:50.297Z," 1.94"
2018-02-12T05:14:47.617Z," 2.04"
2018-02-12T05:19:43.048Z," 2.10"
2018-02-12T05:24:42.942Z," 2.10"
2018-02-12T05:29:38.846Z," 2.15"
2018-02-12T05:34:38.465Z," 2.13"
2018-02-12T05:39:37.605Z," 2.10"
2018-02-12T05:44:33.695Z," 2.20"
2018-02-12T05:49:34.224Z," 2.18"
2018-02-12T05:54:33.215Z," 2.24"
2018-02-12T05:59:32.242Z," 2.14"
2018-02-12T06:04:31.000Z," 2.10"
2018-02-12T06:09:31.250Z," 2.28"
2018-02-12T06:14:26.051Z," 2.25"
2018-02-12T06:19:25.354Z," 2.14"
2018-02-12T06:24:20.308Z," 2.13"
2018-02-12T06:29:20.855Z," 1.99"
2018-02-12T06:34:19.281Z," 2.02"
2018-02-12T06:39:14.537Z," 1.94"
2018-02-12T06:44:11.559Z," 1.99"
2018-02-12T06:49:06.927Z," 2.00"
2018-02-12T06:54:03.046Z," 2.08"
2018-02-12T06:59:01.279Z," 1.99"
2018-02-12T07:04:01.378Z," 2.08"
2018-02-12T07:09:00.093Z," 2.13"
2018-02-12T07:14:00.174Z," 2.08"
2018-02-12T07:18:59.690Z," 2.28"
2018-02-12T07:23:54.830Z," 2.31"
2018-02-12T07:28:54.723Z," 2.32"
2018-02-12T07:33:49.379Z," 2.42"
2018-02-12T07:38:49.813Z," 2.31"
2018-02-12T07:43:48.668Z," 2.33"
2018-02-12T07:48:45.153Z," 2.46"
2018-02-12T07:53:46.248Z," 2.47"
2018-02-12T07:58:41.753Z," 2.54"
2018-02-12T08:03:37.842Z," 2.67"
2018-02-12T08:08:39.469Z," 2.51"
2018-02-12T08:13:38.921Z," 2.69"
2018-02-12T08:18:34.356Z," 2.72"
2018-02-12T08:23:34.196Z," 2.69"
2018-02-12T08:28:34.017Z," 2.90"
2018-02-12T08:33:32.771Z," 2.87"
2018-02-12T08:38:27.830Z," 2.85"
2018-02-12T08:43:27.478Z," 2.80"
2018-02-12T08:48:27.146Z," 2.85"
2018-02-12T08:53:21.730Z," 2.97"
2018-02-12T08:58:18.567Z," 2.93"
2018-02-12T09:03:14.182Z," 3.03"
2018-02-12T09:08:09.762Z," 3.07"
2018-02-12T09:13:06.571Z," 3.22"
2018-02-12T09:18:06.128Z," 3.22"
2018-02-12T09:23:05.332Z," 3.60"
2018-02-12T09:28:06.383Z," 3.58"
2018-02-12T09:33:00.881Z," 3.41"
2018-02-12T09:37:56.668Z," 3.32"
2018-02-12T09:42:53.255Z," 3.59"
2018-02-12T09:47:48.670Z," 4.17"
2018-02-12T09:52:44.614Z," 4.14"
2018-02-12T09:57:40.469Z," 4.04"
2018-02-12T10:02:37.287Z," 4.05"
2018-02-12T10:07:34.211Z," 4.14"
2018-02-12T10:12:32.045Z," 4.31"
2018-02-12T10:17:28.811Z," 4.59"
2018-02-12T10:22:29.237Z," 4.60"
2018-02-12T10:27:25.328Z," 4.58"
2018-02-12T10:32:21.174Z," 4.90"
2018-02-12T10:37:17.663Z," 5.17"
2018-02-12T10:42:13.778Z," 5.51"
2018-02-12T10:47:13.747Z," 5.61"
2018-02-12T10:52:13.758Z," 5.56"
2018-02-12T10:57:09.330Z," 5.94"
2018-02-12T11:02:06.860Z," 6.05"
2018-02-12T11:07:02.611Z," 5.91"
2018-02-12T11:12:03.389Z," 5.94"
2018-02-12T11:17:02.141Z," 5.97"
2018-02-12T11:22:01.027Z," 5.90"
2018-02-12T11:27:01.014Z," 6.33"
2018-02-12T11:31:55.930Z," 6.02"
2018-02-12T11:36:56.135Z," 6.01"
2018-02-12T11:41:54.904Z," 5.66"
2018-02-12T11:46:50.281Z," 5.87"
2018-02-12T11:51:49.851Z," 6.05"
2018-02-12T11:56:50.287Z," 5.98"
2018-02-12T12:01:45.561Z," 5.87"
2018-02-12T12:06:43.002Z," 5.66"
2018-02-12T12:11:41.964Z," 5.56"
2018-02-12T12:16:41.692Z," 5.82"
2018-02-12T12:21:41.735Z," 5.72"
2018-02-12T12:26:36.564Z," 5.91"
2018-02-12T12:31:36.277Z," 6.11"
2018-02-12T12:36:33.344Z," 6.12"
2018-02-12T12:41:30.118Z," 6.22"
2018-02-12T12:46:29.506Z," 6.02"
2018-02-12T12:51:24.436Z," 5.87"
2018-02-12T12:56:24.234Z," 5.86"
2018-02-12T13:01:25.290Z," 5.89"
2018-02-12T13:06:20.147Z," 6.27"
2018-02-12T13:11:21.616Z," 6.42"
2018-02-12T13:16:21.198Z," 6.22"
2018-02-12T13:21:17.159Z," 6.17"
2018-02-12T13:26:13.561Z," 5.84"
2018-02-12T13:31:13.958Z," 5.83"
2018-02-12T13:36:13.464Z," 5.66"
2018-02-12T13:41:12.951Z," 5.86"
2018-02-12T13:46:12.099Z," 6.02"
2018-02-12T13:51:07.108Z," 6.19"
2018-02-12T13:56:05.522Z," 5.90"
2018-02-12T14:01:05.507Z," 5.87"
2018-02-12T14:06:05.911Z," 6.17"
2018-02-12T14:11:06.052Z," 6.42"
2018-02-12T14:16:01.061Z," 6.62"
2018-02-12T14:21:01.804Z," 6.48"
2018-02-12T14:25:57.592Z," 6.45"
2018-02-12T14:30:53.930Z," 6.39"
2018-02-12T14:35:54.201Z," 6.04"
2018-02-12T14:40:53.732Z," 5.90"
2018-02-12T14:45:52.129Z," 5.73"
2018-02-12T14:50:50.624Z," 5.64"
2018-02-12T14:55:46.299Z," 5.73"
2018-02-12T15:00:41.610Z," 5.69"
2018-02-12T15:05:41.278Z," 5.54"
2018-02-12T15:10:39.985Z," 5.54"
2018-02-12T15:15:39.703Z," 5.59"
2018-02-12T15:20:34.542Z," 5.20"
2018-02-12T15:25:32.260Z," 4.42"
2018-02-12T15:30:28.378Z," 4.24"
2018-02-12T15:35:27.457Z," 4.40"
2018-02-12T15:40:27.840Z," 4.50"
2018-02-12T15:45:23.335Z," 4.58"
2018-02-12T15:50:24.232Z," 4.73"
2018-02-12T15:55:22.496Z," 4.90"
2018-02-12T16:00:21.228Z," 4.82"
2018-02-12T16:05:19.797Z," 4.77"
2018-02-12T16:10:14.218Z," 4.60"
2018-02-12T16:15:14.701Z," 4.53"
2018-02-12T16:20:14.379Z," 4.38"
2018-02-12T16:25:10.946Z," 4.42"
2018-02-12T16:30:06.894Z," 4.17"
2018-02-12T16:35:06.112Z," 4.14"
2018-02-12T16:40:01.096Z," 4.05"
2018-02-12T16:45:03.646Z," 4.06"
2018-02-12T16:49:58.553Z," 3.91"
2018-02-12T16:54:58.899Z," 3.84"
2018-02-12T16:59:57.347Z," 3.69"
2018-02-12T17:04:58.039Z," 3.66"
2018-02-12T17:09:54.166Z," 3.69"
2018-02-12T17:14:54.150Z," 3.65"
2018-02-12T17:19:54.315Z," 3.47"
2018-02-12T17:24:53.569Z," 3.55"
2018-02-12T17:29:52.812Z," 3.50"
2018-02-12T17:34:51.278Z," 3.55"
2018-02-12T17:39:53.000Z," 3.56"
2018-02-12T17:44:52.049Z," 3.60"
2018-02-12T17:49:50.662Z," 3.60"
2018-02-12T17:54:48.420Z," 3.44"
2018-02-12T17:59:47.421Z," 3.32"
2018-02-12T18:04:45.998Z," 3.42"
2018-02-12T18:09:40.930Z," 3.41"
2018-02-12T18:14:36.744Z," 3.51"
2018-02-12T18:19:36.500Z," 3.42"
2018-02-12T18:24:36.245Z," 3.51"
2018-02-12T18:29:34.974Z," 3.36"
2018-02-12T18:34:29.697Z," 3.32"
2018-02-12T18:39:26.199Z," 3.28"
2018-02-12T18:44:26.350Z," 3.22"
2018-02-12T18:49:26.551Z," 3.07"
2018-02-12T18:54:21.787Z," 3.10"
2018-02-12T18:59:16.720Z," 2.86"
2018-02-12T19:04:14.150Z," 2.93"
2018-02-12T19:09:09.375Z," 2.95"
2018-02-12T19:14:08.910Z," 2.93"
2018-02-12T19:19:07.813Z," 2.83"
2018-02-12T19:24:06.687Z," 2.86"
2018-02-12T19:29:06.229Z," 2.86"
2018-02-12T19:34:00.872Z," 2.86"
2018-02-12T19:43:58.095Z," 2.54"
2018-02-12T19:48:54.298Z," 2.65"
2018-02-12T19:53:53.666Z," 2.64"
2018-02-12T19:58:52.354Z," 2.62"
2018-02-12T20:03:48.087Z," 2.51"
2018-02-12T20:08:43.311Z," 2.47"
2018-02-12T20:13:39.482Z," 2.44"
2018-02-12T20:18:36.159Z," 2.50"
2018-02-12T20:23:36.471Z," 2.31"
2018-02-12T20:28:35.988Z," 2.28"
2018-02-12T20:33:34.800Z," 2.28"
2018-02-12T20:38:37.454Z," 2.28"
2018-02-12T20:43:39.904Z," 2.28"
2018-02-12T20:53:43.023Z," 2.20"
2018-02-12T20:58:38.984Z," 2.29"
2018-02-12T21:03:39.028Z," 2.44"
2018-02-12T21:08:37.821Z," 2.29"
2018-02-12T21:13:33.148Z," 2.22"
2018-02-12T21:23:36.293Z," 2.17"
2018-02-12T21:33:40.186Z," 1.95"
2018-02-12T21:38:40.163Z," 2.17"
2018-02-12T21:43:37.326Z," 2.20"
2018-02-12T21:48:37.670Z," 2.14"
2018-02-12T21:53:35.920Z," 2.22"
2018-02-12T21:58:34.538Z," 2.14"
2018-02-12T22:03:34.295Z," 2.02"
2018-02-12T22:08:29.962Z," 2.08"
2018-02-12T22:13:31.312Z," 2.04"
2018-02-12T22:18:25.878Z," 2.00"
2018-02-12T22:23:26.504Z," 2.28"
2018-02-12T22:28:20.936Z," 2.26"
2018-02-12T22:33:16.357Z," 2.28"
2018-02-12T22:38:12.779Z," 2.04"
2018-02-12T22:43:13.731Z," 1.94"
2018-02-12T22:48:08.294Z," 2.14"
2018-02-12T22:53:04.962Z," 2.14"
2018-02-12T22:58:05.452Z," 2.04"
2018-02-12T23:03:00.116Z," 2.13"
2018-02-12T23:07:59.837Z," 1.94"
2018-02-12T23:12:59.470Z," 1.95"
2018-02-12T23:17:57.960Z," 1.85"
2018-02-12T23:22:57.545Z," 1.88"
2018-02-12T23:27:53.038Z," 2.00"
2018-02-12T23:32:52.688Z," 1.91"
2018-02-12T23:37:53.030Z," 1.99"
2018-02-12T23:42:53.222Z," 1.97"
2018-02-12T23:47:53.491Z," 1.94"
2018-02-12T23:52:48.424Z," 1.91"
2018-02-12T23:57:44.923Z," 1.87"
